sensor_id;sensor_type;location;lat;lon;timestamp;P1;durP1;ratioP1;P2;durP2;ratioP2
28766;SDS011;15921;52.034;20.650;2022-09-09T00:05:32;13.27;;;7.13;;
28766;SDS011;15921;52.034;20.650;2022-09-09T00:13:09;15.82;;;7.53;;
28766;SDS011;15921;52.034;20.650;2022-09-09T00:15:58;14.90;;;7.88;;
28766;SDS011;15921;52.034;20.650;2022-09-09T00:21:35;14.48;;;7.68;;
28766;SDS011;15921;52.034;20.650;2022-09-09T00:27:07;16.90;;;7.78;;
28766;SDS011;15921;52.034;20.650;2022-09-09T00:29:45;20.75;;;8.52;;
28766;SDS011;15921;52.034;20.650;2022-09-09T00:32:19;13.13;;;7.60;;
28766;SDS011;15921;52.034;20.650;2022-09-09T00:34:56;17.80;;;8.20;;
28766;SDS011;15921;52.034;20.650;2022-09-09T00:37:27;14.85;;;7.43;;
28766;SDS011;15921;52.034;20.650;2022-09-09T00:39:57;14.60;;;7.47;;
28766;SDS011;15921;52.034;20.650;2022-09-09T00:47:54;18.67;;;9.20;;
28766;SDS011;15921;52.034;20.650;2022-09-09T00:56:16;15.02;;;8.23;;
28766;SDS011;15921;52.034;20.650;2022-09-09T00:58:55;13.32;;;7.97;;
28766;SDS011;15921;52.034;20.650;2022-09-09T01:01:25;17.88;;;7.65;;
28766;SDS011;15921;52.034;20.650;2022-09-09T01:03:54;15.77;;;8.43;;
28766;SDS011;15921;52.034;20.650;2022-09-09T01:06:31;17.88;;;9.23;;
28766;SDS011;15921;52.034;20.650;2022-09-09T01:14:45;17.98;;;8.98;;
28766;SDS011;15921;52.034;20.650;2022-09-09T01:22:40;14.75;;;8.90;;
28766;SDS011;15921;52.034;20.650;2022-09-09T01:27:44;17.10;;;8.90;;
28766;SDS011;15921;52.034;20.650;2022-09-09T01:30:14;22.83;;;9.55;;
28766;SDS011;15921;52.034;20.650;2022-09-09T01:32:42;19.20;;;9.48;;
28766;SDS011;15921;52.034;20.650;2022-09-09T01:35:57;21.80;;;9.23;;
28766;SDS011;15921;52.034;20.650;2022-09-09T01:38:08;21.40;;;10.15;;
28766;SDS011;15921;52.034;20.650;2022-09-09T01:40:34;18.73;;;9.73;;
28766;SDS011;15921;52.034;20.650;2022-09-09T01:42:59;20.08;;;10.13;;
28766;SDS011;15921;52.034;20.650;2022-09-09T01:45:25;18.85;;;9.82;;
28766;SDS011;15921;52.034;20.650;2022-09-09T01:47:52;22.65;;;9.50;;
28766;SDS011;15921;52.034;20.650;2022-09-09T01:50:18;19.80;;;10.25;;
28766;SDS011;15921;52.034;20.650;2022-09-09T01:52:45;19.48;;;9.80;;
28766;SDS011;15921;52.034;20.650;2022-09-09T01:55:15;19.92;;;10.40;;
28766;SDS011;15921;52.034;20.650;2022-09-09T01:57:44;22.48;;;10.55;;
28766;SDS011;15921;52.034;20.650;2022-09-09T02:00:46;16.93;;;9.40;;
28766;SDS011;15921;52.034;20.650;2022-09-09T02:03:26;19.73;;;10.43;;
28766;SDS011;15921;52.034;20.650;2022-09-09T02:08:50;19.98;;;10.48;;
28766;SDS011;15921;52.034;20.650;2022-09-09T02:13:48;23.08;;;11.35;;
28766;SDS011;15921;52.034;20.650;2022-09-09T02:16:24;23.25;;;11.18;;
28766;SDS011;15921;52.034;20.650;2022-09-09T02:21:26;23.95;;;11.20;;
28766;SDS011;15921;52.034;20.650;2022-09-09T02:23:54;18.85;;;11.25;;
28766;SDS011;15921;52.034;20.650;2022-09-09T02:26:21;23.17;;;11.30;;
28766;SDS011;15921;52.034;20.650;2022-09-09T02:31:16;20.45;;;11.43;;
28766;SDS011;15921;52.034;20.650;2022-09-09T02:33:46;22.40;;;11.48;;
28766;SDS011;15921;52.034;20.650;2022-09-09T02:38:45;24.77;;;12.27;;
28766;SDS011;15921;52.034;20.650;2022-09-09T02:41:21;27.20;;;12.98;;
28766;SDS011;15921;52.034;20.650;2022-09-09T02:43:51;25.30;;;13.20;;
28766;SDS011;15921;52.034;20.650;2022-09-09T02:47:18;20.73;;;12.68;;
28766;SDS011;15921;52.034;20.650;2022-09-09T02:49:21;24.30;;;12.73;;
28766;SDS011;15921;52.034;20.650;2022-09-09T02:52:13;18.70;;;12.02;;
28766;SDS011;15921;52.034;20.650;2022-09-09T02:54:42;24.95;;;12.25;;
28766;SDS011;15921;52.034;20.650;2022-09-09T02:59:35;28.17;;;12.88;;
28766;SDS011;15921;52.034;20.650;2022-09-09T03:02:02;22.95;;;13.10;;
28766;SDS011;15921;52.034;20.650;2022-09-09T03:04:28;26.15;;;12.82;;
28766;SDS011;15921;52.034;20.650;2022-09-09T03:06:55;26.00;;;12.50;;
28766;SDS011;15921;52.034;20.650;2022-09-09T03:09:21;26.30;;;14.18;;
28766;SDS011;15921;52.034;20.650;2022-09-09T03:11:46;24.60;;;14.20;;
28766;SDS011;15921;52.034;20.650;2022-09-09T03:14:12;29.35;;;14.93;;
28766;SDS011;15921;52.034;20.650;2022-09-09T03:16:38;25.40;;;13.63;;
28766;SDS011;15921;52.034;20.650;2022-09-09T03:23:04;24.67;;;13.02;;
28766;SDS011;15921;52.034;20.650;2022-09-09T03:25:30;26.38;;;14.68;;
28766;SDS011;15921;52.034;20.650;2022-09-09T03:27:57;22.83;;;13.98;;
28766;SDS011;15921;52.034;20.650;2022-09-09T03:30:23;24.00;;;13.50;;
28766;SDS011;15921;52.034;20.650;2022-09-09T03:32:50;23.83;;;14.63;;
28766;SDS011;15921;52.034;20.650;2022-09-09T03:35:17;21.70;;;14.10;;
28766;SDS011;15921;52.034;20.650;2022-09-09T03:37:43;25.08;;;14.15;;
28766;SDS011;15921;52.034;20.650;2022-09-09T03:40:10;24.48;;;13.27;;
28766;SDS011;15921;52.034;20.650;2022-09-09T03:42:37;22.95;;;13.77;;
28766;SDS011;15921;52.034;20.650;2022-09-09T03:45:04;22.40;;;13.70;;
28766;SDS011;15921;52.034;20.650;2022-09-09T03:47:32;22.98;;;13.45;;
28766;SDS011;15921;52.034;20.650;2022-09-09T03:49:58;18.92;;;10.77;;
28766;SDS011;15921;52.034;20.650;2022-09-09T03:52:24;19.33;;;12.82;;
28766;SDS011;15921;52.034;20.650;2022-09-09T03:54:51;20.05;;;12.40;;
28766;SDS011;15921;52.034;20.650;2022-09-09T03:57:18;21.50;;;13.13;;
28766;SDS011;15921;52.034;20.650;2022-09-09T03:59:44;19.13;;;12.07;;
28766;SDS011;15921;52.034;20.650;2022-09-09T04:02:23;19.00;;;11.63;;
28766;SDS011;15921;52.034;20.650;2022-09-09T04:04:49;19.77;;;11.38;;
28766;SDS011;15921;52.034;20.650;2022-09-09T04:07:14;17.95;;;10.88;;
28766;SDS011;15921;52.034;20.650;2022-09-09T04:09:40;17.77;;;11.65;;
28766;SDS011;15921;52.034;20.650;2022-09-09T04:12:06;24.02;;;12.90;;
28766;SDS011;15921;52.034;20.650;2022-09-09T04:14:32;17.10;;;10.93;;
28766;SDS011;15921;52.034;20.650;2022-09-09T04:16:58;22.20;;;11.45;;
28766;SDS011;15921;52.034;20.650;2022-09-09T04:19:24;16.25;;;10.98;;
28766;SDS011;15921;52.034;20.650;2022-09-09T04:21:50;22.65;;;10.80;;
28766;SDS011;15921;52.034;20.650;2022-09-09T04:24:17;15.50;;;11.25;;
28766;SDS011;15921;52.034;20.650;2022-09-09T05:11:53;24.80;;;14.27;;
28766;SDS011;15921;52.034;20.650;2022-09-09T05:14:19;25.45;;;15.40;;
28766;SDS011;15921;52.034;20.650;2022-09-09T05:16:45;25.60;;;14.88;;
28766;SDS011;15921;52.034;20.650;2022-09-09T05:19:12;23.50;;;14.93;;
28766;SDS011;15921;52.034;20.650;2022-09-09T05:21:38;23.23;;;15.27;;
28766;SDS011;15921;52.034;20.650;2022-09-09T05:24:16;23.98;;;13.90;;
28766;SDS011;15921;52.034;20.650;2022-09-09T05:26:50;21.63;;;13.05;;
28766;SDS011;15921;52.034;20.650;2022-09-09T05:29:17;21.27;;;13.90;;
28766;SDS011;15921;52.034;20.650;2022-09-09T05:31:44;19.80;;;12.65;;
28766;SDS011;15921;52.034;20.650;2022-09-09T05:34:12;19.42;;;12.88;;
28766;SDS011;15921;52.034;20.650;2022-09-09T05:36:38;21.05;;;13.75;;
28766;SDS011;15921;52.034;20.650;2022-09-09T05:39:04;19.10;;;12.35;;
28766;SDS011;15921;52.034;20.650;2022-09-09T05:41:30;17.58;;;11.10;;
28766;SDS011;15921;52.034;20.650;2022-09-09T05:43:56;17.27;;;12.43;;
28766;SDS011;15921;52.034;20.650;2022-09-09T05:46:24;17.85;;;12.75;;
28766;SDS011;15921;52.034;20.650;2022-09-09T05:48:51;19.40;;;12.70;;
28766;SDS011;15921;52.034;20.650;2022-09-09T05:51:19;16.63;;;11.40;;
28766;SDS011;15921;52.034;20.650;2022-09-09T05:53:47;15.45;;;11.20;;
28766;SDS011;15921;52.034;20.650;2022-09-09T05:56:15;20.77;;;12.38;;
28766;SDS011;15921;52.034;20.650;2022-09-09T05:58:43;19.70;;;11.30;;
28766;SDS011;15921;52.034;20.650;2022-09-09T06:01:11;15.77;;;11.43;;
28766;SDS011;15921;52.034;20.650;2022-09-09T06:03:39;14.52;;;11.35;;
28766;SDS011;15921;52.034;20.650;2022-09-09T06:06:08;18.30;;;11.85;;
28766;SDS011;15921;52.034;20.650;2022-09-09T06:08:36;17.77;;;12.27;;
28766;SDS011;15921;52.034;20.650;2022-09-09T06:11:04;18.70;;;12.13;;
28766;SDS011;15921;52.034;20.650;2022-09-09T06:13:31;19.73;;;11.95;;
28766;SDS011;15921;52.034;20.650;2022-09-09T06:15:57;19.30;;;12.05;;
28766;SDS011;15921;52.034;20.650;2022-09-09T06:31:18;18.42;;;11.57;;
28766;SDS011;15921;52.034;20.650;2022-09-09T06:33:48;18.33;;;11.82;;
28766;SDS011;15921;52.034;20.650;2022-09-09T06:36:25;19.63;;;11.93;;
28766;SDS011;15921;52.034;20.650;2022-09-09T06:38:52;18.30;;;11.38;;
28766;SDS011;15921;52.034;20.650;2022-09-09T06:41:19;17.75;;;11.27;;
28766;SDS011;15921;52.034;20.650;2022-09-09T06:43:46;20.63;;;12.68;;
28766;SDS011;15921;52.034;20.650;2022-09-09T06:48:42;25.48;;;12.98;;
28766;SDS011;15921;52.034;20.650;2022-09-09T06:51:28;22.05;;;12.85;;
28766;SDS011;15921;52.034;20.650;2022-09-09T06:53:56;22.42;;;12.70;;
28766;SDS011;15921;52.034;20.650;2022-09-09T06:58:52;21.65;;;12.30;;
28766;SDS011;15921;52.034;20.650;2022-09-09T07:01:20;19.83;;;11.80;;
28766;SDS011;15921;52.034;20.650;2022-09-09T07:03:51;20.77;;;12.57;;
28766;SDS011;15921;52.034;20.650;2022-09-09T07:06:23;20.50;;;11.73;;
28766;SDS011;15921;52.034;20.650;2022-09-09T07:08:55;22.38;;;13.52;;
28766;SDS011;15921;52.034;20.650;2022-09-09T07:11:24;21.73;;;12.15;;
28766;SDS011;15921;52.034;20.650;2022-09-09T07:13:54;19.88;;;12.20;;
28766;SDS011;15921;52.034;20.650;2022-09-09T07:16:22;22.92;;;12.93;;
28766;SDS011;15921;52.034;20.650;2022-09-09T07:18:52;23.65;;;13.82;;
28766;SDS011;15921;52.034;20.650;2022-09-09T07:21:22;23.00;;;13.50;;
28766;SDS011;15921;52.034;20.650;2022-09-09T07:23:51;23.63;;;13.88;;
28766;SDS011;15921;52.034;20.650;2022-09-09T07:26:18;26.33;;;14.18;;
28766;SDS011;15921;52.034;20.650;2022-09-09T07:28:46;24.08;;;13.65;;
28766;SDS011;15921;52.034;20.650;2022-09-09T07:31:13;28.33;;;13.55;;
28766;SDS011;15921;52.034;20.650;2022-09-09T07:36:32;28.45;;;15.73;;
28766;SDS011;15921;52.034;20.650;2022-09-09T07:39:04;25.80;;;13.38;;
28766;SDS011;15921;52.034;20.650;2022-09-09T07:44:03;21.88;;;13.18;;
28766;SDS011;15921;52.034;20.650;2022-09-09T07:46:31;28.85;;;13.88;;
28766;SDS011;15921;52.034;20.650;2022-09-09T07:48:57;31.02;;;15.07;;
28766;SDS011;15921;52.034;20.650;2022-09-09T07:51:27;25.67;;;13.65;;
28766;SDS011;15921;52.034;20.650;2022-09-09T07:53:55;29.23;;;14.75;;
28766;SDS011;15921;52.034;20.650;2022-09-09T07:56:23;33.95;;;15.05;;
28766;SDS011;15921;52.034;20.650;2022-09-09T07:58:51;32.83;;;15.40;;
28766;SDS011;15921;52.034;20.650;2022-09-09T08:01:21;25.40;;;13.88;;
28766;SDS011;15921;52.034;20.650;2022-09-09T08:04:03;32.67;;;15.57;;
28766;SDS011;15921;52.034;20.650;2022-09-09T08:06:38;30.40;;;14.55;;
28766;SDS011;15921;52.034;20.650;2022-09-09T08:09:05;24.13;;;13.23;;
28766;SDS011;15921;52.034;20.650;2022-09-09T08:11:32;37.78;;;16.38;;
28766;SDS011;15921;52.034;20.650;2022-09-09T08:13:58;31.25;;;14.68;;
28766;SDS011;15921;52.034;20.650;2022-09-09T08:16:25;33.30;;;15.13;;
28766;SDS011;15921;52.034;20.650;2022-09-09T08:18:53;37.42;;;16.38;;
28766;SDS011;15921;52.034;20.650;2022-09-09T08:21:21;28.02;;;13.63;;
28766;SDS011;15921;52.034;20.650;2022-09-09T08:23:50;26.77;;;14.02;;
28766;SDS011;15921;52.034;20.650;2022-09-09T08:26:20;28.85;;;14.00;;
28766;SDS011;15921;52.034;20.650;2022-09-09T08:28:48;32.55;;;14.00;;
28766;SDS011;15921;52.034;20.650;2022-09-09T08:31:17;33.15;;;15.63;;
28766;SDS011;15921;52.034;20.650;2022-09-09T08:33:59;35.20;;;14.93;;
28766;SDS011;15921;52.034;20.650;2022-09-09T08:36:27;32.00;;;15.07;;
28766;SDS011;15921;52.034;20.650;2022-09-09T08:38:55;33.95;;;14.45;;
28766;SDS011;15921;52.034;20.650;2022-09-09T08:41:35;33.42;;;14.68;;
28766;SDS011;15921;52.034;20.650;2022-09-09T08:47:41;35.25;;;15.43;;
28766;SDS011;15921;52.034;20.650;2022-09-09T08:50:32;31.33;;;15.60;;
28766;SDS011;15921;52.034;20.650;2022-09-09T08:53:02;28.27;;;13.90;;
28766;SDS011;15921;52.034;20.650;2022-09-09T08:55:45;30.20;;;15.00;;
28766;SDS011;15921;52.034;20.650;2022-09-09T08:58:26;30.35;;;14.43;;
28766;SDS011;15921;52.034;20.650;2022-09-09T09:11:55;32.15;;;14.18;;
28766;SDS011;15921;52.034;20.650;2022-09-09T09:14:31;32.88;;;16.45;;
28766;SDS011;15921;52.034;20.650;2022-09-09T09:19:35;34.72;;;16.65;;
28766;SDS011;15921;52.034;20.650;2022-09-09T09:22:41;36.83;;;17.38;;
28766;SDS011;15921;52.034;20.650;2022-09-09T09:30:19;34.55;;;16.52;;
28766;SDS011;15921;52.034;20.650;2022-09-09T09:35:41;37.85;;;17.08;;
28766;SDS011;15921;52.034;20.650;2022-09-09T09:38:25;31.52;;;17.23;;
28766;SDS011;15921;52.034;20.650;2022-09-09T09:40:56;47.85;;;18.33;;
28766;SDS011;15921;52.034;20.650;2022-09-09T09:43:41;36.80;;;18.42;;
28766;SDS011;15921;52.034;20.650;2022-09-09T09:46:18;30.85;;;16.45;;
28766;SDS011;15921;52.034;20.650;2022-09-09T09:48:58;37.05;;;16.83;;
28766;SDS011;15921;52.034;20.650;2022-09-09T09:51:31;31.70;;;16.38;;
28766;SDS011;15921;52.034;20.650;2022-09-09T09:56:38;32.65;;;16.50;;
28766;SDS011;15921;52.034;20.650;2022-09-09T09:59:05;36.50;;;17.90;;
28766;SDS011;15921;52.034;20.650;2022-09-09T10:01:44;35.80;;;17.52;;
28766;SDS011;15921;52.034;20.650;2022-09-09T10:04:17;36.90;;;17.77;;
28766;SDS011;15921;52.034;20.650;2022-09-09T10:06:48;35.42;;;16.95;;
28766;SDS011;15921;52.034;20.650;2022-09-09T10:09:22;37.05;;;18.05;;
28766;SDS011;15921;52.034;20.650;2022-09-09T10:12:02;34.95;;;17.52;;
28766;SDS011;15921;52.034;20.650;2022-09-09T10:17:54;43.25;;;18.50;;
28766;SDS011;15921;52.034;20.650;2022-09-09T10:26:20;37.92;;;17.48;;
28766;SDS011;15921;52.034;20.650;2022-09-09T10:32:21;41.95;;;19.27;;
28766;SDS011;15921;52.034;20.650;2022-09-09T10:36:56;35.45;;;17.63;;
28766;SDS011;15921;52.034;20.650;2022-09-09T10:39:36;35.70;;;17.88;;
28766;SDS011;15921;52.034;20.650;2022-09-09T10:42:14;41.45;;;19.48;;
28766;SDS011;15921;52.034;20.650;2022-09-09T10:44:46;38.03;;;18.40;;
28766;SDS011;15921;52.034;20.650;2022-09-09T10:53:28;35.58;;;18.15;;
28766;SDS011;15921;52.034;20.650;2022-09-09T10:56:17;37.50;;;18.48;;
28766;SDS011;15921;52.034;20.650;2022-09-09T10:59:05;37.00;;;18.27;;
28766;SDS011;15921;52.034;20.650;2022-09-09T11:01:39;46.22;;;20.58;;
28766;SDS011;15921;52.034;20.650;2022-09-09T11:06:39;46.45;;;20.65;;
28766;SDS011;15921;52.034;20.650;2022-09-09T11:09:14;41.75;;;20.05;;
28766;SDS011;15921;52.034;20.650;2022-09-09T11:11:45;43.15;;;21.55;;
28766;SDS011;15921;52.034;20.650;2022-09-09T11:17:01;43.05;;;20.27;;
28766;SDS011;15921;52.034;20.650;2022-09-09T11:19:48;44.78;;;20.42;;
28766;SDS011;15921;52.034;20.650;2022-09-09T11:27:29;44.92;;;21.00;;
28766;SDS011;15921;52.034;20.650;2022-09-09T11:40:17;47.25;;;21.33;;
28766;SDS011;15921;52.034;20.650;2022-09-09T11:42:48;47.10;;;21.27;;
28766;SDS011;15921;52.034;20.650;2022-09-09T11:45:26;44.80;;;22.00;;
28766;SDS011;15921;52.034;20.650;2022-09-09T11:47:58;40.72;;;19.00;;
28766;SDS011;15921;52.034;20.650;2022-09-09T11:53:03;45.08;;;20.33;;
28766;SDS011;15921;52.034;20.650;2022-09-09T11:56:03;52.03;;;21.77;;
28766;SDS011;15921;52.034;20.650;2022-09-09T11:58:30;49.60;;;23.27;;
28766;SDS011;15921;52.034;20.650;2022-09-09T12:01:25;55.95;;;24.05;;
28766;SDS011;15921;52.034;20.650;2022-09-09T12:04:04;52.20;;;23.13;;
28766;SDS011;15921;52.034;20.650;2022-09-09T12:06:31;47.67;;;21.33;;
28766;SDS011;15921;52.034;20.650;2022-09-09T12:09:07;45.45;;;22.63;;
28766;SDS011;15921;52.034;20.650;2022-09-09T12:11:45;42.85;;;20.58;;
28766;SDS011;15921;52.034;20.650;2022-09-09T12:17:25;43.25;;;21.75;;
28766;SDS011;15921;52.034;20.650;2022-09-09T12:20:03;38.53;;;19.85;;
28766;SDS011;15921;52.034;20.650;2022-09-09T12:28:18;40.67;;;21.13;;
28766;SDS011;15921;52.034;20.650;2022-09-09T12:30:56;46.35;;;21.33;;
28766;SDS011;15921;52.034;20.650;2022-09-09T12:33:36;40.13;;;19.45;;
28766;SDS011;15921;52.034;20.650;2022-09-09T12:36:11;35.30;;;19.10;;
28766;SDS011;15921;52.034;20.650;2022-09-09T12:38:44;37.28;;;18.15;;
28766;SDS011;15921;52.034;20.650;2022-09-09T12:41:21;32.38;;;16.38;;
28766;SDS011;15921;52.034;20.650;2022-09-09T12:44:02;34.95;;;19.15;;
28766;SDS011;15921;52.034;20.650;2022-09-09T12:46:38;36.83;;;18.98;;
28766;SDS011;15921;52.034;20.650;2022-09-09T12:52:01;35.65;;;18.58;;
28766;SDS011;15921;52.034;20.650;2022-09-09T12:54:30;34.40;;;17.98;;
28766;SDS011;15921;52.034;20.650;2022-09-09T12:56:59;31.20;;;17.30;;
28766;SDS011;15921;52.034;20.650;2022-09-09T12:59:35;31.33;;;18.10;;
28766;SDS011;15921;52.034;20.650;2022-09-09T13:02:11;37.55;;;18.35;;
28766;SDS011;15921;52.034;20.650;2022-09-09T13:05:05;33.50;;;17.95;;
28766;SDS011;15921;52.034;20.650;2022-09-09T13:07:39;27.85;;;15.48;;
28766;SDS011;15921;52.034;20.650;2022-09-09T13:10:05;31.95;;;17.73;;
28766;SDS011;15921;52.034;20.650;2022-09-09T13:12:33;31.20;;;17.88;;
28766;SDS011;15921;52.034;20.650;2022-09-09T13:14:58;33.70;;;18.23;;
28766;SDS011;15921;52.034;20.650;2022-09-09T13:17:25;33.20;;;18.05;;
28766;SDS011;15921;52.034;20.650;2022-09-09T13:19:54;28.83;;;16.90;;
28766;SDS011;15921;52.034;20.650;2022-09-09T13:22:21;30.33;;;17.48;;
28766;SDS011;15921;52.034;20.650;2022-09-09T13:24:58;27.25;;;16.30;;
28766;SDS011;15921;52.034;20.650;2022-09-09T13:27:35;32.80;;;18.00;;
28766;SDS011;15921;52.034;20.650;2022-09-09T13:35:34;32.55;;;16.92;;
28766;SDS011;15921;52.034;20.650;2022-09-09T13:38:12;35.58;;;18.85;;
28766;SDS011;15921;52.034;20.650;2022-09-09T13:40:39;37.97;;;19.67;;
28766;SDS011;15921;52.034;20.650;2022-09-09T13:43:05;30.10;;;17.10;;
28766;SDS011;15921;52.034;20.650;2022-09-09T13:45:51;35.28;;;19.15;;
28766;SDS011;15921;52.034;20.650;2022-09-09T13:48:19;30.67;;;17.75;;
28766;SDS011;15921;52.034;20.650;2022-09-09T13:50:53;33.67;;;19.38;;
28766;SDS011;15921;52.034;20.650;2022-09-09T13:53:30;32.55;;;17.20;;
28766;SDS011;15921;52.034;20.650;2022-09-09T13:55:56;29.83;;;17.15;;
28766;SDS011;15921;52.034;20.650;2022-09-09T13:58:23;33.15;;;18.10;;
28766;SDS011;15921;52.034;20.650;2022-09-09T14:00:50;33.33;;;19.95;;
28766;SDS011;15921;52.034;20.650;2022-09-09T14:03:17;31.60;;;17.85;;
28766;SDS011;15921;52.034;20.650;2022-09-09T14:05:44;36.67;;;20.40;;
28766;SDS011;15921;52.034;20.650;2022-09-09T14:08:13;32.38;;;17.27;;
28766;SDS011;15921;52.034;20.650;2022-09-09T14:10:42;33.80;;;19.90;;
28766;SDS011;15921;52.034;20.650;2022-09-09T14:13:08;32.95;;;18.33;;
28766;SDS011;15921;52.034;20.650;2022-09-09T14:15:34;34.63;;;18.40;;
28766;SDS011;15921;52.034;20.650;2022-09-09T14:17:59;30.98;;;17.30;;
28766;SDS011;15921;52.034;20.650;2022-09-09T14:20:25;31.70;;;17.58;;
28766;SDS011;15921;52.034;20.650;2022-09-09T14:22:51;32.53;;;15.82;;
28766;SDS011;15921;52.034;20.650;2022-09-09T14:25:18;27.05;;;15.60;;
28766;SDS011;15921;52.034;20.650;2022-09-09T14:27:44;31.90;;;17.77;;
28766;SDS011;15921;52.034;20.650;2022-09-09T14:30:11;28.30;;;17.23;;
28766;SDS011;15921;52.034;20.650;2022-09-09T14:32:37;27.05;;;15.27;;
28766;SDS011;15921;52.034;20.650;2022-09-09T14:35:12;29.38;;;16.35;;
28766;SDS011;15921;52.034;20.650;2022-09-09T14:37:37;25.77;;;16.63;;
28766;SDS011;15921;52.034;20.650;2022-09-09T14:40:04;26.92;;;16.25;;
28766;SDS011;15921;52.034;20.650;2022-09-09T14:42:30;28.05;;;16.08;;
28766;SDS011;15921;52.034;20.650;2022-09-09T14:44:56;26.92;;;15.77;;
28766;SDS011;15921;52.034;20.650;2022-09-09T14:47:22;25.55;;;14.60;;
28766;SDS011;15921;52.034;20.650;2022-09-09T14:49:47;20.65;;;13.68;;
28766;SDS011;15921;52.034;20.650;2022-09-09T14:52:14;26.10;;;15.93;;
28766;SDS011;15921;52.034;20.650;2022-09-09T14:54:41;28.27;;;16.25;;
28766;SDS011;15921;52.034;20.650;2022-09-09T14:57:07;28.15;;;15.77;;
28766;SDS011;15921;52.034;20.650;2022-09-09T14:59:32;23.73;;;14.65;;
28766;SDS011;15921;52.034;20.650;2022-09-09T15:01:59;27.35;;;15.13;;
28766;SDS011;15921;52.034;20.650;2022-09-09T15:04:29;29.33;;;15.05;;
28766;SDS011;15921;52.034;20.650;2022-09-09T15:06:55;26.75;;;15.45;;
28766;SDS011;15921;52.034;20.650;2022-09-09T15:09:20;26.60;;;15.57;;
28766;SDS011;15921;52.034;20.650;2022-09-09T15:11:46;26.95;;;15.98;;
28766;SDS011;15921;52.034;20.650;2022-09-09T15:14:12;21.95;;;13.63;;
28766;SDS011;15921;52.034;20.650;2022-09-09T15:16:38;29.33;;;15.40;;
28766;SDS011;15921;52.034;20.650;2022-09-09T15:19:04;26.85;;;15.13;;
28766;SDS011;15921;52.034;20.650;2022-09-09T15:21:31;21.67;;;13.80;;
28766;SDS011;15921;52.034;20.650;2022-09-09T15:23:59;22.75;;;14.18;;
28766;SDS011;15921;52.034;20.650;2022-09-09T15:26:26;21.27;;;13.63;;
28766;SDS011;15921;52.034;20.650;2022-09-09T15:28:52;22.52;;;14.35;;
28766;SDS011;15921;52.034;20.650;2022-09-09T15:31:23;25.25;;;15.00;;
28766;SDS011;15921;52.034;20.650;2022-09-09T15:33:50;25.73;;;14.73;;
28766;SDS011;15921;52.034;20.650;2022-09-09T15:36:30;27.85;;;14.20;;
28766;SDS011;15921;52.034;20.650;2022-09-09T15:38:58;21.48;;;14.13;;
28766;SDS011;15921;52.034;20.650;2022-09-09T15:41:24;28.73;;;16.48;;
28766;SDS011;15921;52.034;20.650;2022-09-09T15:43:51;27.27;;;17.30;;
28766;SDS011;15921;52.034;20.650;2022-09-09T15:46:22;32.05;;;18.58;;
28766;SDS011;15921;52.034;20.650;2022-09-09T15:48:52;33.08;;;18.58;;
28766;SDS011;15921;52.034;20.650;2022-09-09T15:51:23;31.63;;;18.73;;
28766;SDS011;15921;52.034;20.650;2022-09-09T15:53:53;30.83;;;19.25;;
28766;SDS011;15921;52.034;20.650;2022-09-09T15:56:21;32.20;;;19.00;;
28766;SDS011;15921;52.034;20.650;2022-09-09T15:58:47;30.45;;;18.50;;
28766;SDS011;15921;52.034;20.650;2022-09-09T16:01:13;28.27;;;17.65;;
28766;SDS011;15921;52.034;20.650;2022-09-09T16:03:40;34.78;;;19.95;;
28766;SDS011;15921;52.034;20.650;2022-09-09T16:06:07;34.75;;;20.15;;
28766;SDS011;15921;52.034;20.650;2022-09-09T16:08:35;32.78;;;18.83;;
28766;SDS011;15921;52.034;20.650;2022-09-09T16:11:08;33.15;;;18.70;;
28766;SDS011;15921;52.034;20.650;2022-09-09T16:13:37;31.92;;;19.38;;
28766;SDS011;15921;52.034;20.650;2022-09-09T16:16:04;33.72;;;18.70;;
28766;SDS011;15921;52.034;20.650;2022-09-09T16:18:36;37.38;;;21.58;;
28766;SDS011;15921;52.034;20.650;2022-09-09T16:21:04;39.45;;;21.02;;
28766;SDS011;15921;52.034;20.650;2022-09-09T16:23:34;51.20;;;24.23;;
28766;SDS011;15921;52.034;20.650;2022-09-09T16:26:00;45.92;;;23.13;;
28766;SDS011;15921;52.034;20.650;2022-09-09T16:28:27;42.33;;;22.48;;
28766;SDS011;15921;52.034;20.650;2022-09-09T16:30:53;49.67;;;23.02;;
28766;SDS011;15921;52.034;20.650;2022-09-09T16:33:19;38.53;;;21.52;;
28766;SDS011;15921;52.034;20.650;2022-09-09T16:35:45;41.08;;;21.52;;
28766;SDS011;15921;52.034;20.650;2022-09-09T16:38:11;42.42;;;20.77;;
28766;SDS011;15921;52.034;20.650;2022-09-09T16:40:37;36.83;;;19.50;;
28766;SDS011;15921;52.034;20.650;2022-09-09T16:43:06;44.88;;;23.17;;
28766;SDS011;15921;52.034;20.650;2022-09-09T16:45:34;43.20;;;23.67;;
28766;SDS011;15921;52.034;20.650;2022-09-09T16:48:06;48.95;;;23.75;;
28766;SDS011;15921;52.034;20.650;2022-09-09T16:50:31;45.70;;;23.35;;
28766;SDS011;15921;52.034;20.650;2022-09-09T16:52:57;47.22;;;22.67;;
28766;SDS011;15921;52.034;20.650;2022-09-09T16:55:23;54.42;;;23.50;;
28766;SDS011;15921;52.034;20.650;2022-09-09T16:57:49;51.92;;;25.27;;
28766;SDS011;15921;52.034;20.650;2022-09-09T17:00:15;46.53;;;24.05;;
28766;SDS011;15921;52.034;20.650;2022-09-09T17:02:42;47.72;;;25.35;;
28766;SDS011;15921;52.034;20.650;2022-09-09T17:05:08;39.22;;;22.98;;
28766;SDS011;15921;52.034;20.650;2022-09-09T17:07:34;53.20;;;25.13;;
28766;SDS011;15921;52.034;20.650;2022-09-09T17:10:01;58.20;;;23.15;;
28766;SDS011;15921;52.034;20.650;2022-09-09T17:12:27;48.95;;;26.10;;
28766;SDS011;15921;52.034;20.650;2022-09-09T17:14:52;46.35;;;23.90;;
28766;SDS011;15921;52.034;20.650;2022-09-09T17:17:20;47.65;;;24.77;;
28766;SDS011;15921;52.034;20.650;2022-09-09T17:19:46;42.55;;;23.17;;
28766;SDS011;15921;52.034;20.650;2022-09-09T17:22:12;46.85;;;23.45;;
28766;SDS011;15921;52.034;20.650;2022-09-09T17:24:38;47.97;;;23.08;;
28766;SDS011;15921;52.034;20.650;2022-09-09T17:27:05;40.97;;;21.63;;
28766;SDS011;15921;52.034;20.650;2022-09-09T17:29:31;46.90;;;23.67;;
28766;SDS011;15921;52.034;20.650;2022-09-09T17:31:57;36.85;;;20.48;;
28766;SDS011;15921;52.034;20.650;2022-09-09T17:34:23;38.63;;;21.67;;
28766;SDS011;15921;52.034;20.650;2022-09-09T17:36:50;43.15;;;23.65;;
28766;SDS011;15921;52.034;20.650;2022-09-09T17:39:15;43.22;;;22.40;;
28766;SDS011;15921;52.034;20.650;2022-09-09T17:41:41;41.80;;;21.90;;
28766;SDS011;15921;52.034;20.650;2022-09-09T17:44:07;44.83;;;23.65;;
28766;SDS011;15921;52.034;20.650;2022-09-09T17:46:38;44.08;;;24.20;;
28766;SDS011;15921;52.034;20.650;2022-09-09T17:49:06;39.28;;;22.70;;
28766;SDS011;15921;52.034;20.650;2022-09-09T17:51:34;40.15;;;21.17;;
28766;SDS011;15921;52.034;20.650;2022-09-09T17:54:02;43.03;;;22.58;;
28766;SDS011;15921;52.034;20.650;2022-09-09T17:56:35;42.40;;;22.23;;
28766;SDS011;15921;52.034;20.650;2022-09-09T17:59:03;44.47;;;21.85;;
28766;SDS011;15921;52.034;20.650;2022-09-09T18:01:31;49.60;;;24.63;;
28766;SDS011;15921;52.034;20.650;2022-09-09T18:04:00;38.00;;;22.05;;
28766;SDS011;15921;52.034;20.650;2022-09-09T18:06:31;52.05;;;25.92;;